Time;durP1;ratioP1;P1;durP2;ratioP2;P2;SDS_P1;SDS_P2;PMS_P1;PMS_P2;Temp;Humidity;BMP_temperature;BMP_pressure;BME280_temperature;BME280_humidity;BME280_pressure;Samples;Min_cycle;Max_cycle;Signal;HPM_P1;HPM_P2
2022/10/24 00:28:11;;;;;;;6.07;1.92;;;22.30;73.10;;;;;;5116272;27;20405;-68
2022/10/24 00:30:37;;;;;;;9.13;2.15;;;22.50;73.40;;;;;;5074956;28;20043;-69
2022/10/24 00:33:04;;;;;;;6.25;2.70;;;22.50;72.60;;;;;;5074361;28;20016;-68
2022/10/24 00:35:31;;;;;;;5.90;2.33;;;22.50;72.20;;;;;;5079327;28;20433;-69
2022/10/24 00:37:57;;;;;;;5.82;2.53;;;22.50;71.80;;;;;;5075288;28;20024;-69
2022/10/24 00:40:24;;;;;;;9.77;2.53;;;22.60;71.70;;;;;;5077460;28;20548;-69
2022/10/24 00:42:51;;;;;;;6.95;2.63;;;22.60;71.60;;;;;;5077955;28;20013;-69
2022/10/24 00:45:41;;;;;;;7.03;2.22;;;22.60;71.60;;;;;;5076831;28;20514;-69
2022/10/24 00:48:36;;;;;;;7.15;2.10;;;22.60;71.50;;;;;;5076106;28;20023;-69
2022/10/24 00:51:23;;;;;;;7.07;2.50;;;22.60;71.50;;;;;;5072173;28;20028;-69
2022/10/24 00:53:55;;;;;;;11.98;3.90;;;22.60;71.40;;;;;;5073080;28;20043;-69
2022/10/24 00:56:28;;;;;;;9.45;2.05;;;22.60;71.40;;;;;;5077158;28;20123;-68
2022/10/24 00:58:56;;;;;;;10.07;3.60;;;22.60;71.40;;;;;;5080711;28;20026;-69
2022/10/24 01:01:25;;;;;;;11.15;3.03;;;22.60;71.40;;;;;;5074311;28;20032;-69
2022/10/24 01:03:51;;;;;;;7.45;3.13;;;22.50;71.40;;;;;;5077106;28;20032;-69
2022/10/24 01:06:36;;;;;;;11.95;3.75;;;22.50;71.50;;;;;;5076911;28;20029;-69
2022/10/24 01:09:34;;;;;;;6.60;2.80;;;22.40;71.50;;;;;;5075463;28;20588;-69
2022/10/24 01:12:09;;;;;;;9.93;2.45;;;22.40;71.60;;;;;;5075759;28;20535;-68
2022/10/24 01:15:22;;;;;;;9.60;2.58;;;22.40;71.70;;;;;;5080944;28;20020;-68
2022/10/24 01:18:07;;;;;;;4.22;1.77;;;22.40;71.60;;;;;;5058620;28;20072;-68
2022/10/24 01:20:52;;;;;;;5.03;2.40;;;22.40;71.70;;;;;;5070913;28;20467;-69
2022/10/24 01:23:44;;;;;;;5.53;2.53;;;22.30;71.60;;;;;;5078752;28;20029;-68
2022/10/24 01:26:27;;;;;;;5.05;1.88;;;22.30;71.60;;;;;;5076404;28;20041;-69
2022/10/24 01:29:22;;;;;;;7.22;2.38;;;22.30;71.50;;;;;;5066883;28;20036;-69
2022/10/24 01:31:56;;;;;;;6.13;2.45;;;22.30;71.50;;;;;;5061696;28;20112;-68
2022/10/24 01:34:45;;;;;;;5.68;2.05;;;22.30;71.50;;;;;;5061318;28;20029;-68
2022/10/24 01:37:18;;;;;;;6.72;2.85;;;22.30;71.30;;;;;;5063056;28;20037;-69
2022/10/24 01:39:50;;;;;;;13.65;2.92;;;22.30;71.30;;;;;;5056404;28;20609;-68
2022/10/24 01:42:20;;;;;;;13.25;3.15;;;22.20;71.60;;;;;;5058692;28;20100;-68
2022/10/24 01:44:54;;;;;;;9.70;2.28;;;22.30;72.30;;;;;;5061403;28;20025;-68
2022/10/24 01:47:53;;;;;;;8.52;2.30;;;22.20;72.10;;;;;;5063047;28;20029;-68
2022/10/24 01:50:21;;;;;;;46.30;6.07;;;22.20;71.80;;;;;;5058638;28;20032;-68
2022/10/24 01:52:49;;;;;;;10.45;2.45;;;22.20;72.00;;;;;;5061545;28;20025;-68
2022/10/24 01:55:16;;;;;;;10.95;3.13;;;22.20;72.20;;;;;;5061394;28;20448;-68
2022/10/24 01:57:42;;;;;;;15.52;3.55;;;22.10;72.20;;;;;;5058237;28;20024;-68
2022/10/24 02:00:15;;;;;;;13.52;4.13;;;22.10;72.10;;;;;;5062295;28;20017;-69
2022/10/24 02:02:44;;;;;;;9.18;2.45;;;22.10;72.10;;;;;;5058139;28;20021;-69
2022/10/24 02:05:55;;;;;;;10.07;3.38;;;22.10;72.10;;;;;;5059075;28;20048;-68
2022/10/24 02:08:39;;;;;;;12.68;2.90;;;22.10;72.10;;;;;;5059864;28;20781;-68
2022/10/24 02:11:07;;;;;;;9.90;2.47;;;22.10;72.10;;;;;;5058105;28;20155;-69
2022/10/24 02:14:05;;;;;;;7.75;2.65;;;22.10;72.00;;;;;;5057497;28;20047;-69
2022/10/24 02:16:32;;;;;;;10.63;3.67;;;22.10;72.00;;;;;;5060145;28;20053;-68
2022/10/24 02:19:00;;;;;;;9.10;2.55;;;22.10;72.20;;;;;;5060801;28;20017;-69
2022/10/24 02:21:57;;;;;;;6.32;1.98;;;22.00;72.10;;;;;;5061101;28;20020;-68
2022/10/24 02:24:46;;;;;;;7.65;3.05;;;22.00;72.20;;;;;;5063797;28;20027;-68
2022/10/24 02:27:21;;;;;;;10.60;2.05;;;22.00;72.20;;;;;;5060211;28;20418;-69
2022/10/24 02:29:51;;;;;;;4.18;2.38;;;22.00;72.30;;;;;;5061480;28;20079;-68
2022/10/24 02:32:27;;;;;;;11.73;3.50;;;22.00;72.40;;;;;;5061861;28;20443;-69
2022/10/24 02:34:54;;;;;;;8.65;2.83;;;22.00;72.60;;;;;;5061479;28;20075;-68
2022/10/24 02:37:22;;;;;;;9.90;3.50;;;21.90;72.80;;;;;;5062895;28;20127;-69
2022/10/24 02:39:50;;;;;;;8.80;3.10;;;21.90;72.90;;;;;;5057888;28;20075;-69
2022/10/24 02:42:18;;;;;;;9.02;3.78;;;21.90;73.00;;;;;;5062471;28;20016;-69
2022/10/24 02:44:47;;;;;;;12.93;5.03;;;21.90;73.10;;;;;;5062571;28;20071;-69
2022/10/24 02:47:14;;;;;;;10.68;4.07;;;21.90;73.10;;;;;;5059489;28;20054;-68
2022/10/24 02:49:42;;;;;;;13.52;2.60;;;21.80;73.10;;;;;;5059758;28;20476;-69
2022/10/24 02:52:08;;;;;;;18.48;3.88;;;21.80;73.10;;;;;;5059882;28;20499;-68
2022/10/24 02:54:35;;;;;;;13.23;3.75;;;21.80;73.50;;;;;;5061922;28;20078;-68
2022/10/24 02:57:03;;;;;;;19.80;5.55;;;21.80;73.90;;;;;;5060550;28;20032;-68
2022/10/24 02:59:30;;;;;;;16.95;4.90;;;21.80;74.60;;;;;;5061576;28;20032;-68
2022/10/24 03:01:57;;;;;;;19.00;4.03;;;21.80;74.40;;;;;;5060584;28;20390;-68
2022/10/24 03:04:24;;;;;;;33.35;6.43;;;21.80;74.20;;;;;;5060085;28;20039;-68
2022/10/24 03:06:51;;;;;;;17.23;3.78;;;21.70;73.90;;;;;;5057713;28;20500;-69
2022/10/24 03:09:18;;;;;;;12.85;3.45;;;21.70;74.10;;;;;;5059948;28;20051;-69
2022/10/24 03:11:44;;;;;;;12.05;2.75;;;21.70;73.70;;;;;;5062110;28;20021;-69
2022/10/24 03:14:11;;;;;;;6.82;2.97;;;21.70;73.30;;;;;;5059845;28;20028;-69
2022/10/24 03:16:37;;;;;;;21.45;10.77;;;21.70;73.20;;;;;;5059870;28;20037;-69
2022/10/24 03:19:04;;;;;;;29.48;13.85;;;21.60;73.40;;;;;;5054840;28;20017;-68
2022/10/24 03:21:31;;;;;;;21.65;8.70;;;21.70;74.10;;;;;;5063622;28;20021;-68
2022/10/24 03:23:57;;;;;;;16.77;7.00;;;21.70;74.10;;;;;;5057805;28;20040;-69
2022/10/24 03:26:24;;;;;;;12.70;4.00;;;21.60;73.60;;;;;;5062611;28;20033;-69
2022/10/24 03:28:50;;;;;;;10.65;4.10;;;21.60;73.30;;;;;;5058461;28;20078;-69
2022/10/24 03:31:16;;;;;;;13.02;3.42;;;21.60;73.10;;;;;;5061601;28;20016;-68
2022/10/24 03:33:43;;;;;;;7.70;3.10;;;21.50;73.00;;;;;;5060370;28;20032;-69
2022/10/24 03:36:09;;;;;;;3.70;2.13;;;21.50;72.90;;;;;;5055255;28;20036;-68
2022/10/24 03:38:36;;;;;;;6.25;1.90;;;21.50;72.70;;;;;;5058968;28;20048;-69
2022/10/24 03:41:04;;;;;;;12.88;4.55;;;21.50;72.80;;;;;;5058884;28;20012;-68
2022/10/24 03:43:47;;;;;;;14.05;3.20;;;21.50;73.00;;;;;;5058407;28;20560;-68
2022/10/24 03:46:13;;;;;;;10.13;2.83;;;21.50;73.10;;;;;;5043779;28;20361;-68
2022/10/24 03:48:40;;;;;;;15.65;4.95;;;21.50;73.30;;;;;;5056806;28;20356;-68
2022/10/24 03:51:06;;;;;;;8.80;3.22;;;21.50;73.40;;;;;;5060368;28;20035;-69
2022/10/24 03:53:33;;;;;;;25.58;5.22;;;21.40;73.60;;;;;;5059520;28;20447;-69
2022/10/24 03:55:59;;;;;;;42.85;17.35;;;21.40;73.80;;;;;;5059980;28;20499;-70
2022/10/24 03:58:26;;;;;;;24.67;7.68;;;21.40;74.20;;;;;;5059879;28;20024;-70
2022/10/24 04:00:56;;;;;;;22.48;5.88;;;21.40;74.30;;;;;;5059454;28;20074;-72
2022/10/24 04:03:23;;;;;;;21.38;5.65;;;21.40;75.30;;;;;;5061996;28;20036;-69
2022/10/24 04:05:50;;;;;;;31.02;18.10;;;21.40;75.10;;;;;;5058221;28;20063;-71
2022/10/24 04:08:17;;;;;;;34.95;15.45;;;21.40;75.40;;;;;;5060093;28;20028;-70
2022/10/24 04:10:44;;;;;;;19.23;8.57;;;21.40;75.40;;;;;;5057839;28;20111;-70
2022/10/24 04:13:10;;;;;;;13.52;6.93;;;21.40;75.60;;;;;;5062322;28;20016;-68
2022/10/24 04:15:45;;;;;;;14.80;3.55;;;21.40;75.80;;;;;;5065244;28;20036;-68
2022/10/24 04:18:12;;;;;;;18.48;7.00;;;21.40;75.60;;;;;;5053186;28;20025;-69
2022/10/24 04:20:38;;;;;;;29.50;20.25;;;21.30;76.50;;;;;;5055618;28;20064;-68
2022/10/24 04:23:05;;;;;;;25.63;16.33;;;21.40;75.60;;;;;;5063045;28;20028;-69
2022/10/24 04:25:31;;;;;;;21.05;10.02;;;21.40;75.40;;;;;;5058086;28;21085;-69
2022/10/24 04:27:58;;;;;;;15.75;5.72;;;21.30;75.20;;;;;;5054363;28;20435;-68
2022/10/24 04:30:25;;;;;;;10.43;4.38;;;21.30;75.20;;;;;;5059179;28;20121;-70
2022/10/24 04:32:51;;;;;;;14.65;3.58;;;21.30;75.30;;;;;;5055132;28;20367;-70
2022/10/24 04:35:18;;;;;;;12.40;3.47;;;21.30;75.20;;;;;;5055193;28;20497;-70
2022/10/24 04:37:44;;;;;;;17.67;3.58;;;21.30;75.20;;;;;;5053698;28;20476;-70
2022/10/24 04:40:11;;;;;;;14.40;3.63;;;21.30;75.30;;;;;;5053212;28;20466;-68
2022/10/24 04:42:38;;;;;;;12.90;3.47;;;21.30;75.40;;;;;;5052226;28;20063;-68
2022/10/24 04:45:06;;;;;;;12.25;3.47;;;21.30;75.40;;;;;;5061744;28;20063;-68
2022/10/24 04:48:12;;;;;;;16.83;3.47;;;21.30;75.40;;;;;;5057083;28;20037;-69
2022/10/24 04:51:18;;;;;;;9.38;3.08;;;21.20;75.40;;;;;;5061086;28;20479;-69
2022/10/24 04:54:24;;;;;;;11.73;2.80;;;21.30;75.50;;;;;;5053447;28;20017;-69
2022/10/24 04:57:30;;;;;;;12.68;3.80;;;21.20;75.50;;;;;;5057679;28;20105;-68
2022/10/24 05:00:36;;;;;;;12.93;4.97;;;21.20;75.50;;;;;;5059791;28;20082;-70
2022/10/24 05:03:42;;;;;;;15.38;3.42;;;21.20;75.70;;;;;;5065250;28;20064;-70
2022/10/24 05:06:48;;;;;;;8.60;2.85;;;21.20;75.70;;;;;;5057292;28;20048;-70
2022/10/24 05:09:54;;;;;;;16.15;2.83;;;21.30;75.90;;;;;;5066297;28;20059;-70
2022/10/24 05:12:21;;;;;;;20.17;3.47;;;21.20;75.90;;;;;;5075337;28;20116;-70
2022/10/24 05:15:28;;;;;;;12.45;2.90;;;21.20;76.50;;;;;;5062279;28;20496;-68
2022/10/24 05:18:34;;;;;;;14.85;3.92;;;21.30;76.80;;;;;;5062994;28;20037;-71
2022/10/24 05:21:40;;;;;;;13.13;3.38;;;21.20;77.00;;;;;;5062306;28;20113;-70
2022/10/24 05:24:09;;;;;;;11.40;3.65;;;21.30;77.20;;;;;;5056888;28;20059;-71
2022/10/24 05:27:15;;;;;;;6.80;2.92;;;21.30;77.30;;;;;;5062070;28;20055;-70
2022/10/24 05:30:21;;;;;;;8.10;2.65;;;21.30;77.40;;;;;;5065612;28;20024;-71
2022/10/24 05:33:27;;;;;;;21.20;3.30;;;21.30;77.30;;;;;;5059229;28;20033;-71
2022/10/24 05:36:33;;;;;;;11.77;2.95;;;21.40;77.70;;;;;;5057842;28;20521;-71
2022/10/24 05:39:40;;;;;;;9.63;2.83;;;21.40;77.80;;;;;;5059129;28;20056;-70
2022/10/24 05:42:46;;;;;;;10.05;3.00;;;21.50;77.80;;;;;;5059446;28;20536;-70
2022/10/24 05:45:52;;;;;;;11.07;3.35;;;21.50;77.70;;;;;;5058885;28;20025;-70
2022/10/24 05:48:58;;;;;;;9.05;3.05;;;21.50;77.80;;;;;;5063835;28;20147;-71
2022/10/24 05:51:26;;;;;;;11.40;2.90;;;21.50;77.70;;;;;;5063644;28;20441;-68
2022/10/24 05:54:32;;;;;;;12.05;3.30;;;21.50;77.60;;;;;;5062354;28;20032;-70
2022/10/24 05:57:38;;;;;;;11.18;3.90;;;21.60;77.50;;;;;;5060640;28;20045;-68
2022/10/24 06:00:44;;;;;;;15.23;3.97;;;21.60;77.40;;;;;;5061265;28;20532;-68
2022/10/24 08:53:05;;;;;;;18.00;4.07;;;24.50;65.30;;;;;;6246582;22;2709199;-69
2022/10/24 08:55:34;;;;;;;13.85;3.60;;;24.60;65.00;;;;;;6342360;22;20014;-69
2022/10/24 08:58:02;;;;;;;3.08;2.05;;;24.60;64.80;;;;;;6340666;22;20019;-69
2022/10/24 09:00:35;;;;;;;5.53;1.90;;;24.70;64.60;;;;;;6342393;22;20448;-69
2022/10/24 09:03:20;;;;;;;9.20;2.38;;;24.70;63.80;;;;;;6340741;22;20009;-69
2022/10/24 09:05:51;;;;;;;6.60;2.30;;;24.80;63.10;;;;;;6342101;22;20006;-69
2022/10/24 09:08:38;;;;;;;7.30;2.30;;;24.80;62.60;;;;;;6341614;22;20003;-69
2022/10/24 09:11:07;;;;;;;7.82;1.77;;;24.90;62.10;;;;;;6340773;22;20014;-69
2022/10/24 09:13:37;;;;;;;7.82;2.33;;;24.90;62.80;;;;;;6342002;22;20007;-69
2022/10/24 09:16:04;;;;;;;10.65;3.45;;;25.00;61.70;;;;;;6340607;22;20437;-69
2022/10/24 09:18:35;;;;;;;12.93;1.90;;;25.00;61.30;;;;;;6342178;22;20033;-69
2022/10/24 09:21:04;;;;;;;4.35;1.58;;;25.10;61.60;;;;;;6337815;22;20014;-69
2022/10/24 09:23:33;;;;;;;6.00;2.08;;;25.20;61.80;;;;;;6334570;22;19999;-70
2022/10/24 09:25:59;;;;;;;3.47;1.83;;;25.20;61.90;;;;;;6334638;22;20034;-69
2022/10/24 09:28:26;;;;;;;12.63;2.25;;;25.30;61.50;;;;;;6333653;22;20025;-69
2022/10/24 09:30:52;;;;;;;9.02;1.58;;;25.30;60.80;;;;;;6334031;22;20010;-69
2022/10/24 09:33:27;;;;;;;5.72;2.03;;;25.40;60.90;;;;;;6333237;22;20026;-69
2022/10/24 09:35:55;;;;;;;9.13;2.00;;;25.50;61.00;;;;;;6334442;22;20053;-69
2022/10/24 09:38:23;;;;;;;3.20;1.38;;;25.50;60.20;;;;;;6334588;22;20055;-69
2022/10/24 09:40:51;;;;;;;6.22;1.88;;;25.60;59.90;;;;;;6334222;22;20006;-69
2022/10/24 09:43:44;;;;;;;13.25;2.35;;;25.70;59.70;;;;;;6334122;22;19999;-69
2022/10/24 09:46:44;;;;;;;3.97;1.83;;;25.70;58.90;;;;;;6333054;22;20072;-69
2022/10/24 09:49:13;;;;;;;4.85;1.25;;;25.80;58.10;;;;;;6334775;22;20010;-69
2022/10/24 09:51:59;;;;;;;8.13;3.03;;;25.90;58.10;;;;;;6334209;22;20326;-69
2022/10/24 09:54:28;;;;;;;6.57;1.92;;;25.90;58.40;;;;;;6333158;22;20350;-69
2022/10/24 09:57:11;;;;;;;5.78;2.35;;;26.00;58.50;;;;;;6334945;22;20006;-69
2022/10/24 09:59:48;;;;;;;4.20;2.00;;;26.10;58.30;;;;;;6333334;22;20006;-69
2022/10/24 10:02:34;;;;;;;7.75;1.63;;;26.10;58.00;;;;;;6334355;22;20006;-69
2022/10/24 10:05:03;;;;;;;3.58;1.58;;;26.10;57.90;;;;;;6334588;22;20064;-69
2022/10/24 10:07:33;;;;;;;9.77;2.13;;;26.20;57.70;;;;;;6332977;22;20034;-69
2022/10/24 10:10:20;;;;;;;13.13;2.42;;;26.20;57.20;;;;;;6334574;22;20022;-69
2022/10/24 10:12:59;;;;;;;9.63;1.75;;;26.30;57.20;;;;;;6333567;22;20061;-69
2022/10/24 10:15:46;;;;;;;9.43;3.13;;;26.30;57.20;;;;;;6334223;22;20430;-69
2022/10/24 10:18:37;;;;;;;7.10;2.88;;;26.40;57.10;;;;;;6334625;22;20059;-69
2022/10/24 10:21:05;;;;;;;11.18;2.25;;;26.40;57.20;;;;;;6333061;22;20438;-69
2022/10/24 10:23:38;;;;;;;7.03;2.22;;;26.50;57.20;;;;;;6334289;22;20003;-68
2022/10/24 10:26:12;;;;;;;8.95;2.70;;;26.50;57.50;;;;;;6333343;22;20014;-69
2022/10/24 10:29:03;;;;;;;10.45;2.75;;;26.60;57.70;;;;;;6333898;22;19999;-69
2022/10/24 10:31:42;;;;;;;7.55;2.30;;;26.70;57.90;;;;;;6334254;22;20044;-69
2022/10/24 10:34:22;;;;;;;8.75;3.33;;;26.70;57.80;;;;;;6332242;22;20017;-69
2022/10/24 10:37:09;;;;;;;3.50;2.03;;;26.80;57.60;;;;;;6333934;22;20065;-69
2022/10/24 10:40:03;;;;;;;12.80;2.65;;;26.80;57.90;;;;;;6334072;22;20002;-69
2022/10/24 10:42:35;;;;;;;17.23;4.00;;;26.80;58.30;;;;;;6333179;22;20089;-69
2022/10/24 10:45:14;;;;;;;11.65;2.20;;;26.90;58.80;;;;;;6334197;22;20596;-69
2022/10/24 10:48:18;;;;;;;12.35;2.00;;;27.00;59.40;;;;;;6333522;22;20437;-68
2022/10/24 10:50:58;;;;;;;11.63;2.67;;;27.00;59.50;;;;;;6332920;22;20441;-69
2022/10/24 10:53:37;;;;;;;6.63;2.15;;;27.00;59.60;;;;;;6333557;22;20049;-69
2022/10/24 10:56:06;;;;;;;12.50;2.45;;;27.00;59.80;;;;;;6332891;22;20029;-69
2022/10/24 10:58:43;;;;;;;7.10;2.50;;;27.10;60.10;;;;;;6334220;22;20003;-69
2022/10/24 11:01:28;;;;;;;5.38;2.03;;;27.10;60.10;;;;;;6333723;22;20035;-69
2022/10/24 11:04:14;;;;;;;5.75;1.95;;;27.20;60.20;;;;;;6332640;22;20033;-69
2022/10/24 11:07:16;;;;;;;7.05;2.00;;;27.20;60.20;;;;;;6333611;22;20036;-69
2022/10/24 11:09:49;;;;;;;11.38;3.63;;;27.30;60.20;;;;;;6333724;22;20019;-69
2022/10/24 11:12:28;;;;;;;8.07;2.50;;;27.30;60.20;;;;;;6332947;22;20426;-69
2022/10/24 11:14:59;;;;;;;12.32;3.17;;;27.30;60.20;;;;;;6333872;22;20380;-69
2022/10/24 11:17:36;;;;;;;6.18;2.13;;;27.40;60.90;;;;;;6332320;22;20009;-69
2022/10/24 11:20:24;;;;;;;5.88;2.88;;;27.40;60.30;;;;;;6333982;22;20008;-68
2022/10/24 11:23:12;;;;;;;4.63;1.95;;;27.50;60.10;;;;;;6333591;22;20016;-69
2022/10/24 11:25:56;;;;;;;5.40;1.95;;;27.50;60.10;;;;;;6332624;22;20340;-69
2022/10/24 11:28:50;;;;;;;34.72;3.72;;;27.50;60.00;;;;;;6334221;22;20014;-69
2022/10/24 11:31:21;;;;;;;9.27;2.63;;;27.50;60.10;;;;;;6333383;22;20382;-70
2022/10/24 11:34:23;;;;;;;3.65;2.20;;;27.60;60.20;;;;;;6332907;22;20007;-70
2022/10/24 11:37:32;;;;;;;10.30;2.20;;;27.60;60.10;;;;;;6330042;22;20456;-70
2022/10/24 11:40:44;;;;;;;34.50;3.80;;;27.60;60.10;;;;;;6332778;22;20030;-69
2022/10/24 11:43:50;;;;;;;10.52;2.78;;;27.70;60.00;;;;;;6330813;22;20026;-70
2022/10/24 11:46:41;;;;;;;9.32;2.72;;;27.70;59.60;;;;;;6330755;22;20052;-69
2022/10/24 11:49:28;;;;;;;6.30;2.38;;;27.70;59.30;;;;;;6331725;22;20410;-69
2022/10/24 11:52:00;;;;;;;6.88;1.45;;;27.70;58.90;;;;;;6330104;22;20011;-69
2022/10/24 11:55:06;;;;;;;8.85;2.35;;;27.80;58.80;;;;;;6331486;22;20015;-69
2022/10/24 11:58:12;;;;;;;3.58;1.35;;;27.90;58.50;;;;;;6331528;22;20073;-69
2022/10/24 12:00:57;;;;;;;9.27;2.97;;;27.90;58.50;;;;;;6331001;22;20059;-69
2022/10/24 12:03:54;;;;;;;10.10;2.35;;;28.00;58.60;;;;;;6331856;22;20385;-70
2022/10/24 12:06:39;;;;;;;6.72;2.72;;;28.00;58.70;;;;;;6331758;22;20031;-70
2022/10/24 12:09:26;;;;;;;13.32;2.67;;;27.90;58.60;;;;;;6330767;22;20081;-71
2022/10/24 12:12:05;;;;;;;8.63;2.30;;;27.90;58.60;;;;;;6331693;22;20030;-70
2022/10/24 12:15:02;;;;;;;9.40;2.03;;;27.90;58.70;;;;;;6331143;22;20009;-70
2022/10/24 12:17:48;;;;;;;5.15;2.70;;;27.90;58.80;;;;;;6330474;22;20022;-69
2022/10/24 12:20:20;;;;;;;10.85;3.55;;;27.90;58.90;;;;;;6331495;22;20064;-68
2022/10/24 12:22:51;;;;;;;10.52;1.58;;;27.90;59.10;;;;;;6330710;22;20010;-69
2022/10/24 12:25:29;;;;;;;12.55;2.45;;;27.90;59.20;;;;;;6331218;22;20007;-69
2022/10/24 12:28:26;;;;;;;8.35;2.20;;;27.90;59.10;;;;;;6331853;22;20010;-69
2022/10/24 12:31:13;;;;;;;17.10;2.95;;;27.90;59.10;;;;;;6325860;22;20017;-70
2022/10/24 12:33:40;;;;;;;10.20;2.55;;;28.00;59.20;;;;;;6332927;22;20007;-70
2022/10/24 12:36:45;;;;;;;8.90;2.33;;;28.00;59.40;;;;;;6332831;22;20048;-70
2022/10/24 12:39:27;;;;;;;7.45;1.95;;;28.00;59.50;;;;;;6332938;22;20793;-70
2022/10/24 12:41:54;;;;;;;13.27;2.65;;;28.10;59.50;;;;;;6331263;22;20056;-71
2022/10/24 12:44:33;;;;;;;11.70;2.90;;;28.10;59.60;;;;;;6330437;22;20002;-70
2022/10/24 12:47:01;;;;;;;7.00;2.78;;;28.10;60.00;;;;;;6331072;22;20003;-70
2022/10/24 12:49:30;;;;;;;6.40;2.33;;;28.10;60.20;;;;;;6331541;22;20010;-70
2022/10/24 12:51:57;;;;;;;6.25;1.83;;;28.10;60.20;;;;;;6329897;22;20010;-70
2022/10/24 12:54:44;;;;;;;7.45;2.75;;;28.00;60.00;;;;;;6331856;22;20034;-70
2022/10/24 12:57:13;;;;;;;5.88;2.58;;;28.00;60.30;;;;;;6331267;22;20011;-69
2022/10/24 12:59:49;;;;;;;12.10;2.60;;;28.00;60.40;;;;;;6333457;22;20441;-70
2022/10/24 13:02:15;;;;;;;13.63;3.60;;;27.90;60.60;;;;;;6332636;22;20002;-69
2022/10/24 13:05:06;;;;;;;11.68;2.15;;;27.90;60.90;;;;;;6332360;22;20007;-70
2022/10/24 13:07:45;;;;;;;23.08;3.97;;;27.80;61.30;;;;;;6332790;22;20011;-69
2022/10/24 13:11:07;;;;;;;8.73;3.38;;;27.70;61.10;;;;;;6331981;22;20094;-69
2022/10/24 13:13:50;;;;;;;7.65;2.75;;;27.70;60.90;;;;;;6267169;22;20010;-69
2022/10/24 13:16:23;;;;;;;7.57;2.85;;;27.70;61.00;;;;;;6327650;22;20010;-70
2022/10/24 13:19:07;;;;;;;5.07;2.00;;;27.70;60.70;;;;;;6332105;22;19999;-70
2022/10/24 13:21:45;;;;;;;7.10;1.20;;;27.60;60.60;;;;;;6332737;22;20007;-69
2022/10/24 13:24:14;;;;;;;7.75;1.83;;;27.70;60.70;;;;;;6332981;22;20072;-70
2022/10/24 13:26:46;;;;;;;8.75;2.67;;;27.70;60.80;;;;;;6331983;22;20007;-70
2022/10/24 13:29:38;;;;;;;20.17;2.80;;;27.60;60.70;;;;;;6332932;22;20014;-70
2022/10/24 13:32:04;;;;;;;8.35;2.10;;;27.60;60.60;;;;;;6289061;22;20141;-70
2022/10/24 13:34:38;;;;;;;6.00;1.90;;;27.60;60.20;;;;;;6333086;22;20075;-70
2022/10/24 13:37:22;;;;;;;10.77;2.78;;;27.60;60.20;;;;;;6332413;22;20003;-70
2022/10/24 13:40:20;;;;;;;10.05;3.10;;;27.60;60.10;;;;;;6331398;22;20017;-70
2022/10/24 13:43:00;;;;;;;20.95;2.88;;;27.60;60.00;;;;;;6320775;22;20497;-70
2022/10/24 13:45:45;;;;;;;7.75;2.05;;;27.60;60.00;;;;;;6332411;22;20010;-70
2022/10/24 13:48:44;;;;;;;10.25;2.97;;;27.60;59.90;;;;;;6331871;22;20048;-69
2022/10/24 13:51:45;;;;;;;10.88;2.83;;;27.60;60.00;;;;;;6332953;22;20013;-69
2022/10/24 13:54:26;;;;;;;7.43;2.30;;;27.50;60.00;;;;;;6332362;22;20029;-69
2022/10/24 13:56:52;;;;;;;8.57;2.47;;;27.40;60.10;;;;;;6331899;22;20056;-70
2022/10/24 13:59:35;;;;;;;9.90;2.08;;;27.40;60.40;;;;;;6332715;22;20437;-69
2022/10/24 14:02:06;;;;;;;7.18;1.75;;;27.30;60.40;;;;;;6331020;22;20007;-69
2022/10/24 16:29:24;;;;;;;13.30;4.50;;;25.30;66.20;;;;;;6188737;23;20021;-68
2022/10/24 16:31:51;;;;;;;36.83;4.93;;;25.40;66.00;;;;;;6188963;23;20091;-66
2022/10/24 16:34:17;;;;;;;7.82;3.72;;;25.40;65.90;;;;;;6188689;23;20016;-66
2022/10/24 16:36:44;;;;;;;2.85;1.42;;;25.40;65.70;;;;;;6189280;23;20005;-68
2022/10/24 16:39:10;;;;;;;5.03;2.60;;;25.50;65.40;;;;;;6188204;23;20007;-68
2022/10/24 16:41:37;;;;;;;4.97;1.88;;;25.40;65.20;;;;;;6188912;23;20005;-67
2022/10/24 16:44:03;;;;;;;3.72;1.30;;;25.50;65.20;;;;;;6187800;23;20027;-69
2022/10/24 16:46:30;;;;;;;3.10;1.70;;;25.40;65.10;;;;;;6188931;23;20379;-67
2022/10/24 16:48:56;;;;;;;5.80;1.40;;;25.30;65.20;;;;;;6188384;23;20008;-67
2022/10/24 16:51:30;;;;;;;9.85;1.42;;;25.30;65.10;;;;;;6189037;23;19997;-68
2022/10/24 16:53:58;;;;;;;2.28;1.63;;;25.30;65.10;;;;;;6189448;23;20067;-68
2022/10/24 16:56:25;;;;;;;6.47;1.70;;;25.30;65.00;;;;;;6187606;23;20013;-67
2022/10/24 16:59:31;;;;;;;3.88;1.00;;;25.20;65.00;;;;;;6188733;23;20001;-68
2022/10/24 17:02:17;;;;;;;;;;;25.20;64.90;;;;;;6188733;23;20005;-69
2022/10/24 17:05:23;;;;;;;3.25;0.90;;;25.20;64.60;;;;;;6187627;23;19979;-69
2022/10/24 17:08:29;;;;;;;6.40;1.90;;;25.20;64.40;;;;;;6188407;23;20124;-68
2022/10/24 17:11:15;;;;;;;;;;;25.20;64.60;;;;;;6188334;23;20428;-67
2022/10/24 17:14:21;;;;;;;5.03;1.23;;;25.10;64.60;;;;;;6187460;23;20301;-68
2022/10/24 17:17:07;;;;;;;;;;;25.10;65.00;;;;;;6188517;23;20025;-69
2022/10/24 17:19:35;;;;;;;11.05;7.65;;;25.10;64.90;;;;;;6186749;23;19920;-67
2022/10/24 17:22:02;;;;;;;15.88;4.15;;;25.10;65.30;;;;;;6187707;23;20001;-69
2022/10/24 17:24:28;;;;;;;6.00;3.20;;;25.00;65.30;;;;;;6188286;23;20009;-68
2022/10/24 17:26:55;;;;;;;4.47;2.33;;;25.00;65.30;;;;;;6180747;23;20020;-68
2022/10/24 17:29:32;;;;;;;2.40;1.23;;;25.00;65.50;;;;;;6182373;23;20005;-69
2022/10/24 17:31:59;;;;;;;2.63;1.10;;;24.90;65.40;;;;;;6180355;23;20037;-68
2022/10/24 17:34:27;;;;;;;2.95;1.70;;;24.90;65.30;;;;;;6155003;23;20013;-68
2022/10/24 17:37:07;;;;;;;20.63;2.97;;;24.90;65.30;;;;;;6153473;23;20005;-69
2022/10/24 17:40:26;;;;;;;5.38;1.38;;;24.90;65.40;;;;;;6180563;23;20332;-68
2022/10/24 17:42:53;;;;;;;4.13;1.80;;;24.90;65.60;;;;;;6174114;23;20020;-70
2022/10/24 17:45:23;;;;;;;2.40;1.27;;;24.80;66.40;;;;;;6179732;23;20326;-68
2022/10/24 17:47:50;;;;;;;4.00;1.25;;;24.80;65.70;;;;;;6180765;23;20080;-68
2022/10/24 17:50:18;;;;;;;1.88;1.52;;;24.70;65.80;;;;;;6180336;23;20766;-67
2022/10/24 17:52:49;;;;;;;5.18;1.42;;;24.70;65.80;;;;;;6180131;23;20408;-67
2022/10/24 17:55:22;;;;;;;7.38;2.40;;;24.70;65.80;;;;;;6179664;23;20334;-70
2022/10/24 17:57:49;;;;;;;2.60;1.08;;;24.70;65.60;;;;;;6178685;23;20081;-67
2022/10/24 18:00:16;;;;;;;3.33;1.30;;;24.60;65.40;;;;;;6180321;23;20009;-71
2022/10/24 18:02:52;;;;;;;2.95;1.30;;;24.60;65.40;;;;;;6178295;23;20416;-71
2022/10/24 18:05:20;;;;;;;7.85;1.92;;;24.60;65.30;;;;;;6179299;23;20009;-66
2022/10/24 18:07:49;;;;;;;1.60;1.02;;;24.50;65.40;;;;;;6179956;23;20076;-71
2022/10/24 18:10:16;;;;;;;5.85;1.63;;;24.50;65.40;;;;;;6179207;23;20790;-69
2022/10/24 18:12:43;;;;;;;18.48;6.85;;;24.50;65.30;;;;;;6180636;23;20301;-72
2022/10/24 18:15:18;;;;;;;14.30;6.05;;;24.40;65.30;;;;;;6180879;23;20036;-70
2022/10/24 18:17:45;;;;;;;8.95;3.95;;;24.40;65.80;;;;;;6180229;23;20005;-69
2022/10/24 18:20:14;;;;;;;3.88;2.00;;;24.40;65.80;;;;;;6178422;23;20324;-70
2022/10/24 18:22:42;;;;;;;4.43;1.63;;;24.40;65.70;;;;;;6180162;23;20111;-69
2022/10/24 18:25:10;;;;;;;5.95;1.58;;;24.40;65.60;;;;;;6180539;23;20017;-70
2022/10/24 18:27:36;;;;;;;3.70;1.42;;;24.30;66.20;;;;;;6179860;23;20041;-69
2022/10/24 18:30:05;;;;;;;4.05;1.52;;;24.30;65.50;;;;;;6180734;23;20298;-70
2022/10/24 18:32:32;;;;;;;3.97;1.60;;;24.30;65.40;;;;;;6179266;23;20015;-71
2022/10/24 18:34:59;;;;;;;2.95;1.30;;;24.20;65.30;;;;;;6180580;23;20020;-71
2022/10/24 18:37:26;;;;;;;3.97;1.48;;;24.20;65.30;;;;;;6178922;23;20005;-67
2022/10/24 18:39:53;;;;;;;5.57;1.50;;;24.20;65.30;;;;;;6181177;23;20013;-70
2022/10/24 18:42:49;;;;;;;2.72;1.35;;;24.20;65.50;;;;;;6179838;23;20494;-70
2022/10/24 18:45:22;;;;;;;2.65;1.10;;;24.20;65.40;;;;;;6177091;23;20001;-69
2022/10/24 18:47:49;;;;;;;7.50;1.17;;;24.10;65.40;;;;;;6180467;23;20455;-69
2022/10/24 18:50:19;;;;;;;2.38;0.90;;;24.10;65.40;;;;;;6178327;23;20005;-71
2022/10/24 18:52:45;;;;;;;6.10;1.92;;;24.10;65.60;;;;;;6180439;23;20008;-70
2022/10/24 18:55:17;;;;;;;3.60;1.02;;;24.10;65.40;;;;;;6179068;23;20013;-70
2022/10/24 18:57:45;;;;;;;5.68;1.92;;;24.00;65.40;;;;;;6179945;23;20001;-70
2022/10/24 19:00:15;;;;;;;9.32;5.68;;;24.00;65.50;;;;;;6179993;23;20441;-70
2022/10/24 19:02:54;;;;;;;24.15;9.95;;;24.00;65.60;;;;;;6179206;23;20004;-70
2022/10/24 19:05:25;;;;;;;13.68;9.93;;;24.00;66.20;;;;;;6180032;23;20005;-69
2022/10/24 19:08:31;;;;;;;8.50;6.30;;;24.00;66.40;;;;;;6177533;23;20008;-69
2022/10/24 19:11:17;;;;;;;;;;;23.90;66.70;;;;;;6178227;23;20060;-70
2022/10/24 19:14:24;;;;;;;6.43;2.28;;;23.90;66.50;;;;;;6177902;23;19910;-69
2022/10/24 19:17:15;;;;;;;4.53;1.45;;;23.90;66.20;;;;;;6176949;23;20047;-70
2022/10/24 19:19:42;;;;;;;11.20;2.13;;;23.90;66.10;;;;;;6176929;23;20017;-69
2022/10/24 19:22:09;;;;;;;2.25;1.10;;;23.80;66.00;;;;;;6178306;23;20015;-70